Littleton, CO (80120)

11:57 AM MDT del 29 Agosto 2016 (GMT -0600)
W Caley Ave | | Change Station

Alt. 5495 ft 39.60 °N, 104.99 °W | Updated 10 minutes ago

Mostly Cloudy
Molto nuvoloso
80.2 °F
Sembra 80 °F
N
1.7
Vento Variabile Vento da NE

Oggi
Massima -- | Minima -- °F
--% Possibilità di precip.
Ieri
Massima -- | Minima -- °F
Precip. -- in
Pressione 30.14 in
Visibilità 10.0 miglia
Nuvole Alcuni 10000 ft
Molto nuvoloso 15000 ft
Molto nuvoloso 22000 ft
Indice di calore 80 °F
Punto di rugiada 50 °F
Umidità 35%
Piovosità 0.00 in
Spessore del manto nevoso Non disponibile.
6:25 AM 7:34 PM
Luna calante, 7% visible
METAR KAPA 291753Z 35006KT 10SM FEW100 BKN150 BKN220 24/05 A3033 RMK AO2 SLP207 T02390050 10250 20167 50006
Pressione 30.14 in
Visibilità 10.0 miglia
Nuvole Alcuni 10000 ft
Molto nuvoloso 15000 ft
Molto nuvoloso 22000 ft
Indice di calore 80 °F
Punto di rugiada 50 °F
Umidità 35%
Piovosità 0.00 in
Spessore del manto nevoso Non disponibile.
6:25 AM 7:34 PM
Luna calante, 7% visible
METAR KAPA 291753Z 35006KT 10SM FEW100 BKN150 BKN220 24/05 A3033 RMK AO2 SLP207 T02390050 10250 20167 50006

10-Day Weather Forecast

Almanac

Astronomia

Aug. 29, 2016 Alba Tramonto
Ora attuale
Crepuscolo civile
Crepuscolo nautico
Crepuscolo astronomico
Luna
Estensione della luce visibile
Lunghezza del giorno
Tomorrow will be .
, % of the Moon is Illuminated

Gli estremi di oggi

State Highs State Lows

Community

WunderPhotos

Upload Photos

1,935,683 foto caricate!

WunderBlog® & News

Nearby

Qualità dell'aria

  Qualità dell'aria Indice AQ Inquinante
Not available.

Profondità neve

Stazione Profondità Altitudine

Attività sismica

Città  Distanza Mag. Data & Ora
Minimo Magnitudo Mostrato è 2.5.

Temperature delle acque costiere

Località Temperatura

Stations

Stazioni meteo nelle vicinanze

Ubicazione della stazione Temp. Raffreddamento del vento Punto di rugiada Umidità Vento Precip. Alt. Aggiornato Tipo
                   

Watches & Warnings

There are currently no watches in effect.